createdAt,value
2018-09-26T00:01:02.141Z,98.70
2018-09-26T00:03:35.582Z,98.90
2018-09-26T00:06:03.700Z,98.50
2018-09-26T00:08:31.802Z,99.60
2018-09-26T00:10:59.897Z,99.90
2018-09-26T00:13:28.031Z,99.90
2018-09-26T00:15:56.102Z,99.50
2018-09-26T00:18:24.208Z,99.20
2018-09-26T00:20:52.320Z,99.40
2018-09-26T00:23:20.524Z,99.50
2018-09-26T00:25:48.592Z,99.90
2018-09-26T00:28:16.711Z,99.30
2018-09-26T00:30:44.802Z,99.40
2018-09-26T00:33:12.910Z,99.40
2018-09-26T00:35:41.102Z,99.90
2018-09-26T00:38:09.165Z,99.90
2018-09-26T00:40:37.260Z,99.10
2018-09-26T00:43:05.345Z,99.10
2018-09-26T00:45:33.423Z,99.10
2018-09-26T00:48:01.552Z,98.70
2018-09-26T00:50:29.623Z,98.80
2018-09-26T00:52:57.749Z,98.70
2018-09-26T00:55:26.793Z,98.20
2018-09-26T00:57:54.873Z,97.80
2018-09-26T01:00:22.952Z,97.80
2018-09-26T01:02:51.052Z,97.80
2018-09-26T01:05:19.122Z,97.90
2018-09-26T01:07:47.223Z,98.30
2018-09-26T01:10:15.305Z,97.90
2018-09-26T01:12:43.401Z,97.90
2018-09-26T01:15:11.502Z,97.60
2018-09-26T01:17:39.657Z,97.60
2018-09-26T01:20:08.185Z,98.00
2018-09-26T01:22:36.288Z,98.50
2018-09-26T01:25:04.380Z,98.90
2018-09-26T01:27:35.236Z,98.80
2018-09-26T01:30:04.952Z,98.60
2018-09-26T01:32:33.079Z,99.30
2018-09-26T01:35:01.394Z,99.50
2018-09-26T01:37:29.428Z,99.50
2018-09-26T01:39:57.878Z,99.30
2018-09-26T01:42:26.236Z,99.80
2018-09-26T01:44:54.408Z,99.90
2018-09-26T01:47:22.552Z,99.90
2018-09-26T01:49:50.632Z,99.90
2018-09-26T01:52:18.736Z,99.90
2018-09-26T01:54:46.821Z,99.90
2018-09-26T01:57:15.316Z,99.90
2018-09-26T01:59:43.397Z,99.90
2018-09-26T02:02:11.494Z,99.90
2018-09-26T02:04:39.607Z,99.90
2018-09-26T02:07:07.700Z,99.70
2018-09-26T02:09:35.787Z,99.90
2018-09-26T02:12:03.868Z,99.90
2018-09-26T02:14:31.974Z,99.90
2018-09-26T02:17:00.134Z,99.90
2018-09-26T02:19:28.211Z,99.90
2018-09-26T02:22:02.976Z,99.90
2018-09-26T02:24:31.112Z,99.90
2018-09-26T02:26:59.317Z,99.90
2018-09-26T02:29:27.988Z,99.90
2018-09-26T02:31:56.144Z,99.90
2018-09-26T02:34:24.217Z,99.90
2018-09-26T02:36:52.300Z,99.90
2018-09-26T02:39:20.453Z,99.90
2018-09-26T02:41:48.539Z,99.90
2018-09-26T02:44:16.710Z,99.90
2018-09-26T02:46:44.784Z,99.90
2018-09-26T02:49:12.869Z,99.90
2018-09-26T02:51:40.953Z,99.90
2018-09-26T02:54:09.041Z,99.90
2018-09-26T02:56:37.311Z,99.90
2018-09-26T02:59:06.677Z,99.90
2018-09-26T03:01:34.760Z,99.90
2018-09-26T03:04:02.860Z,99.90
2018-09-26T03:06:30.928Z,99.90
2018-09-26T03:08:59.004Z,99.90
2018-09-26T03:11:27.137Z,99.90
2018-09-26T03:13:55.160Z,99.90
2018-09-26T03:16:23.248Z,99.90
2018-09-26T03:18:51.327Z,99.90
2018-09-26T03:21:19.415Z,99.90
2018-09-26T03:23:47.507Z,99.90
2018-09-26T03:26:15.597Z,99.90
2018-09-26T03:28:43.691Z,99.90
2018-09-26T03:31:11.936Z,99.90
2018-09-26T03:33:40.057Z,99.90
2018-09-26T03:36:08.112Z,99.90
2018-09-26T03:38:36.200Z,99.90
2018-09-26T03:41:04.309Z,99.90
2018-09-26T03:43:32.417Z,99.90
2018-09-26T03:46:00.492Z,99.90
2018-09-26T03:48:28.582Z,99.90
2018-09-26T03:50:56.673Z,99.90
2018-09-26T03:53:24.769Z,99.90
2018-09-26T03:55:52.863Z,99.90
2018-09-26T03:58:21.053Z,99.90
2018-09-26T04:00:48.785Z,99.90
2018-09-26T04:03:16.856Z,99.90
2018-09-26T04:05:44.958Z,99.90
2018-09-26T04:08:13.041Z,99.90
2018-09-26T04:10:41.124Z,99.90
2018-09-26T04:13:09.243Z,99.90
2018-09-26T04:15:43.503Z,99.90
2018-09-26T04:18:11.745Z,99.90
2018-09-26T04:20:39.856Z,99.90
2018-09-26T04:23:07.925Z,99.90
2018-09-26T04:25:36.011Z,99.90
2018-09-26T04:28:04.125Z,99.90
2018-09-26T04:30:32.248Z,99.90
2018-09-26T04:33:00.463Z,99.90
2018-09-26T04:35:28.404Z,99.90
2018-09-26T04:37:56.521Z,99.90
2018-09-26T04:40:24.624Z,99.90
2018-09-26T04:42:52.766Z,99.90
2018-09-26T04:45:20.864Z,99.90
2018-09-26T04:47:48.949Z,99.90
2018-09-26T04:50:17.512Z,99.90
2018-09-26T04:52:45.804Z,99.90
2018-09-26T04:55:15.092Z,99.90
2018-09-26T04:57:43.188Z,99.90
2018-09-26T05:00:11.390Z,99.90
2018-09-26T05:02:39.484Z,99.90
2018-09-26T05:05:07.669Z,99.90
2018-09-26T05:07:36.099Z,99.90
2018-09-26T05:10:04.380Z,99.90
2018-09-26T05:12:32.467Z,99.90
2018-09-26T05:15:00.730Z,99.90
2018-09-26T05:17:28.820Z,99.90
2018-09-26T05:19:57.329Z,99.90
2018-09-26T05:22:25.912Z,99.90
2018-09-26T05:24:54.052Z,99.90
2018-09-26T05:27:22.188Z,99.90
2018-09-26T05:29:50.332Z,99.90
2018-09-26T05:32:18.404Z,99.90
2018-09-26T05:34:46.475Z,99.90
2018-09-26T05:37:14.858Z,99.90
2018-09-26T05:39:42.983Z,99.90
2018-09-26T05:42:11.072Z,99.90
2018-09-26T05:44:39.380Z,99.90
2018-09-26T05:47:08.128Z,99.90
2018-09-26T05:49:36.240Z,99.90
2018-09-26T05:52:04.654Z,99.90
2018-09-26T05:54:32.767Z,99.90
2018-09-26T05:57:01.900Z,99.90
2018-09-26T05:59:30.085Z,99.90
2018-09-26T06:01:58.121Z,99.90
2018-09-26T06:04:26.310Z,99.90
2018-09-26T06:06:54.500Z,99.90
2018-09-26T06:09:22.588Z,99.90
2018-09-26T06:11:50.676Z,99.90
2018-09-26T06:14:18.778Z,99.90
2018-09-26T06:16:46.844Z,99.90
2018-09-26T06:19:14.947Z,99.90
2018-09-26T06:21:43.139Z,99.90
2018-09-26T06:24:11.216Z,99.90
2018-09-26T06:26:39.303Z,99.90
2018-09-26T06:29:07.404Z,99.90
2018-09-26T06:31:35.560Z,99.90
2018-09-26T06:34:03.679Z,99.90
2018-09-26T06:36:31.789Z,99.90
2018-09-26T06:38:59.896Z,99.90
2018-09-26T06:41:27.980Z,99.80
2018-09-26T06:43:56.089Z,99.50
2018-09-26T15:10:52.152Z,65.30
2018-09-26T15:13:20.318Z,70.10
2018-09-26T15:15:48.444Z,69.30
2018-09-26T15:18:16.656Z,68.90
2018-09-26T15:20:44.861Z,69.80
2018-09-26T15:23:12.909Z,72.70
2018-09-26T15:25:41.040Z,75.10
2018-09-26T15:28:09.233Z,71.60
2018-09-26T15:30:37.340Z,71.10
2018-09-26T15:33:05.510Z,73.60
2018-09-26T15:35:33.734Z,72.20
2018-09-26T15:38:01.869Z,72.80
2018-09-26T15:40:30.060Z,73.50
2018-09-26T15:42:58.265Z,71.20
2018-09-26T15:45:26.420Z,70.50
2018-09-26T15:47:54.584Z,70.80
2018-09-26T15:50:22.904Z,71.40
2018-09-26T15:52:51.369Z,72.20
2018-09-26T15:55:19.543Z,74.20
2018-09-26T15:57:47.693Z,73.70
2018-09-26T16:00:15.956Z,73.20
2018-09-26T16:02:44.192Z,71.20
2018-09-26T16:05:12.287Z,71.30
2018-09-26T16:07:40.372Z,72.90
2018-09-26T16:10:08.506Z,73.50
2018-09-26T16:12:37.792Z,69.80
2018-09-26T16:15:05.901Z,71.90
2018-09-26T16:17:34.053Z,74.10
2018-09-26T16:20:02.176Z,74.40
2018-09-26T16:22:30.309Z,72.70
2018-09-26T16:24:58.451Z,75.40
2018-09-26T16:27:26.607Z,75.30
2018-09-26T16:29:54.712Z,75.90
2018-09-26T16:32:22.863Z,76.70
2018-09-26T16:34:50.936Z,75.30
2018-09-26T16:37:19.052Z,76.60
2018-09-26T16:39:47.145Z,75.80
2018-09-26T16:42:15.252Z,77.30
2018-09-26T16:44:43.303Z,77.80
2018-09-26T16:47:11.412Z,77.90
2018-09-26T16:49:39.533Z,75.10
2018-09-26T16:52:07.679Z,78.30
2018-09-26T16:54:35.776Z,77.70
2018-09-26T16:57:03.872Z,77.90
2018-09-26T16:59:31.953Z,77.90
2018-09-26T17:02:00.092Z,76.50
2018-09-26T17:04:28.180Z,76.40
2018-09-26T17:06:56.295Z,75.10
2018-09-26T17:09:24.433Z,76.40
2018-09-26T17:11:52.487Z,77.40
2018-09-26T17:14:20.199Z,77.50
2018-09-26T17:16:48.224Z,78.50
2018-09-26T17:19:16.370Z,79.30
2018-09-26T17:21:44.417Z,80.50
2018-09-26T17:24:12.559Z,80.30
2018-09-26T17:26:40.709Z,79.80
2018-09-26T17:29:08.796Z,79.20
2018-09-26T17:31:36.888Z,78.20
2018-09-26T17:34:05.047Z,79.70
2018-09-26T17:36:33.100Z,78.80
2018-09-26T17:39:01.188Z,79.10
2018-09-26T17:41:29.383Z,78.80
2018-09-26T17:43:57.519Z,78.90
2018-09-26T17:46:25.788Z,79.20
2018-09-26T17:48:53.781Z,78.30
2018-09-26T17:51:21.907Z,79.50
2018-09-26T17:53:49.981Z,79.00
2018-09-26T17:56:18.187Z,79.00
2018-09-26T17:58:46.257Z,79.60
2018-09-26T18:01:14.351Z,79.40
2018-09-26T18:03:42.436Z,79.60
2018-09-26T18:06:10.525Z,80.40
2018-09-26T18:08:38.810Z,81.10
2018-09-26T18:11:06.956Z,81.30
2018-09-26T18:13:35.031Z,81.10
2018-09-26T18:16:04.484Z,82.20
2018-09-26T18:18:32.693Z,83.20
2018-09-26T18:21:00.767Z,84.00
2018-09-26T18:23:28.945Z,84.00
2018-09-26T18:25:56.948Z,84.60
2018-09-26T18:28:25.041Z,85.90
2018-09-26T18:30:53.141Z,85.30
2018-09-26T18:33:21.318Z,85.60
2018-09-26T18:35:49.368Z,85.20
2018-09-26T18:38:17.493Z,85.50
2018-09-26T18:40:45.629Z,85.90
2018-09-26T18:43:13.924Z,85.50
2018-09-26T18:45:42.004Z,86.10
2018-09-26T18:48:10.193Z,86.30
2018-09-26T18:50:38.324Z,85.50
2018-09-26T18:53:06.544Z,85.90
2018-09-26T18:55:34.678Z,86.10
2018-09-26T18:58:02.759Z,86.30
2018-09-26T19:00:30.855Z,86.90
2018-09-26T19:02:59.257Z,87.80
2018-09-26T19:05:27.317Z,88.10
2018-09-26T19:07:55.865Z,87.50
2018-09-26T19:10:23.956Z,88.80
2018-09-26T19:12:52.059Z,90.00
2018-09-26T19:15:21.204Z,90.10
2018-09-26T19:17:48.808Z,90.60
2018-09-26T19:20:16.905Z,90.90
2018-09-26T19:22:45.112Z,91.30
2018-09-26T19:25:13.719Z,92.00
2018-09-26T19:27:41.804Z,92.00
2018-09-26T19:30:10.077Z,92.20
2018-09-26T19:32:38.173Z,92.50
2018-09-26T19:35:06.272Z,92.50
2018-09-26T19:37:34.367Z,93.00
2018-09-26T19:40:02.440Z,92.90
2018-09-26T19:42:30.521Z,93.10
2018-09-26T19:44:58.694Z,93.20
2018-09-26T19:47:26.972Z,93.60
2018-09-26T19:49:55.044Z,93.70
2018-09-26T19:52:23.124Z,93.90
2018-09-26T19:54:51.188Z,93.90
2018-09-26T19:57:20.270Z,94.20
2018-09-26T19:59:48.329Z,94.40
2018-09-26T20:02:16.405Z,94.60
2018-09-26T20:04:44.568Z,95.00
2018-09-26T20:07:12.660Z,94.90
2018-09-26T20:09:40.732Z,95.20
2018-09-26T20:12:08.805Z,95.50
2018-09-26T20:14:36.908Z,95.90
2018-09-26T20:17:05.005Z,95.50
2018-09-26T20:19:33.092Z,95.70
2018-09-26T20:22:01.273Z,95.80
2018-09-26T20:24:29.264Z,96.10
2018-09-26T20:26:57.516Z,96.30
2018-09-26T20:29:25.653Z,96.60
2018-09-26T20:31:53.601Z,96.80
2018-09-26T20:34:21.761Z,97.00
2018-09-26T20:36:49.831Z,96.90
2018-09-26T20:39:17.928Z,97.00
2018-09-26T20:41:46.008Z,97.10
2018-09-26T20:44:14.103Z,97.30
2018-09-26T20:46:42.222Z,97.00
2018-09-26T20:49:10.398Z,96.80
2018-09-26T20:51:38.478Z,96.80
2018-09-26T20:54:06.568Z,96.80
2018-09-26T20:56:34.708Z,97.10
2018-09-26T20:59:03.408Z,97.10
2018-09-26T21:01:31.576Z,97.10
2018-09-26T21:03:59.733Z,97.20
2018-09-26T21:06:27.871Z,96.90
2018-09-26T21:08:55.893Z,97.00
2018-09-26T21:11:23.976Z,97.50
2018-09-26T21:13:52.052Z,97.50
2018-09-26T21:16:20.151Z,97.60
2018-09-26T21:18:48.220Z,97.90
2018-09-26T21:21:16.367Z,97.90
2018-09-26T21:23:44.431Z,97.40
2018-09-26T21:26:12.509Z,97.90
2018-09-26T21:28:40.657Z,98.30
2018-09-26T21:31:08.812Z,99.30
2018-09-26T21:33:36.844Z,99.90
2018-09-26T21:36:05.958Z,99.90
2018-09-26T21:38:35.399Z,98.30
2018-09-26T21:41:03.933Z,97.60
2018-09-26T21:43:32.737Z,97.60
2018-09-26T21:46:01.960Z,98.00
2018-09-26T21:48:30.486Z,98.20
2018-09-26T21:51:00.151Z,98.30
2018-09-26T21:53:29.138Z,98.30
2018-09-26T21:55:57.775Z,98.20
2018-09-26T21:58:25.940Z,98.60
2018-09-26T22:00:59.073Z,99.30
2018-09-26T22:03:27.148Z,99.90
2018-09-26T22:05:55.229Z,99.90
2018-09-26T22:08:23.308Z,99.90
2018-09-26T22:10:51.705Z,99.90
2018-09-26T22:13:19.800Z,99.90
2018-09-26T22:15:47.920Z,99.90
2018-09-26T22:18:15.997Z,99.90
2018-09-26T22:20:44.084Z,99.90
2018-09-26T22:23:12.176Z,99.90
2018-09-26T22:25:41.428Z,99.90
2018-09-26T22:28:09.520Z,99.90
2018-09-26T22:30:37.593Z,99.90
2018-09-26T22:33:05.685Z,99.90
2018-09-26T22:35:33.774Z,99.90
2018-09-26T22:38:01.963Z,99.90
2018-09-26T22:40:30.132Z,99.90
2018-09-26T22:42:58.213Z,99.90
